sensor_id;sensor_type;location;lat;lon;timestamp;P1;durP1;ratioP1;P2;durP2;ratioP2
37609;SDS011;23457;51.966;8.230;2023-11-21T00:02:23;49.90;;;28.35;;
37609;SDS011;23457;51.966;8.230;2023-11-21T00:04:50;63.83;;;27.80;;
37609;SDS011;23457;51.966;8.230;2023-11-21T00:07:17;51.80;;;27.60;;
37609;SDS011;23457;51.966;8.230;2023-11-21T00:09:44;52.90;;;26.92;;
37609;SDS011;23457;51.966;8.230;2023-11-21T00:12:11;53.40;;;28.40;;
37609;SDS011;23457;51.966;8.230;2023-11-21T00:14:37;54.60;;;28.42;;
37609;SDS011;23457;51.966;8.230;2023-11-21T00:17:05;50.58;;;26.83;;
37609;SDS011;23457;51.966;8.230;2023-11-21T00:19:32;49.35;;;26.17;;
37609;SDS011;23457;51.966;8.230;2023-11-21T00:22:02;58.05;;;28.08;;
37609;SDS011;23457;51.966;8.230;2023-11-21T00:24:28;50.08;;;25.13;;
37609;SDS011;23457;51.966;8.230;2023-11-21T00:26:55;54.88;;;27.20;;
37609;SDS011;23457;51.966;8.230;2023-11-21T00:29:23;57.15;;;26.27;;
37609;SDS011;23457;51.966;8.230;2023-11-21T00:31:50;53.63;;;26.02;;
37609;SDS011;23457;51.966;8.230;2023-11-21T00:34:17;40.38;;;23.60;;
37609;SDS011;23457;51.966;8.230;2023-11-21T00:36:44;40.38;;;22.90;;
37609;SDS011;23457;51.966;8.230;2023-11-21T00:39:11;45.63;;;22.13;;
37609;SDS011;23457;51.966;8.230;2023-11-21T00:41:39;40.95;;;22.13;;
37609;SDS011;23457;51.966;8.230;2023-11-21T00:44:06;53.90;;;23.98;;
37609;SDS011;23457;51.966;8.230;2023-11-21T00:46:33;41.70;;;24.02;;
37609;SDS011;23457;51.966;8.230;2023-11-21T00:49:00;43.50;;;24.30;;
37609;SDS011;23457;51.966;8.230;2023-11-21T00:51:27;43.47;;;23.17;;
37609;SDS011;23457;51.966;8.230;2023-11-21T00:53:54;44.78;;;23.10;;
37609;SDS011;23457;51.966;8.230;2023-11-21T00:56:20;34.95;;;22.00;;
37609;SDS011;23457;51.966;8.230;2023-11-21T00:58:48;46.25;;;24.27;;
37609;SDS011;23457;51.966;8.230;2023-11-21T01:01:18;39.78;;;22.83;;
37609;SDS011;23457;51.966;8.230;2023-11-21T01:03:46;38.83;;;21.83;;
37609;SDS011;23457;51.966;8.230;2023-11-21T01:06:13;43.70;;;22.70;;
37609;SDS011;23457;51.966;8.230;2023-11-21T01:08:41;43.08;;;23.73;;
37609;SDS011;23457;51.966;8.230;2023-11-21T01:11:09;41.53;;;23.23;;
37609;SDS011;23457;51.966;8.230;2023-11-21T01:13:38;48.38;;;25.27;;
37609;SDS011;23457;51.966;8.230;2023-11-21T01:16:06;42.72;;;24.33;;
37609;SDS011;23457;51.966;8.230;2023-11-21T01:18:34;45.13;;;23.38;;
37609;SDS011;23457;51.966;8.230;2023-11-21T01:21:01;41.90;;;22.50;;
37609;SDS011;23457;51.966;8.230;2023-11-21T01:23:28;40.47;;;24.75;;
37609;SDS011;23457;51.966;8.230;2023-11-21T01:25:55;45.08;;;23.70;;
37609;SDS011;23457;51.966;8.230;2023-11-21T01:28:23;39.72;;;22.92;;
37609;SDS011;23457;51.966;8.230;2023-11-21T01:30:50;37.65;;;23.17;;
37609;SDS011;23457;51.966;8.230;2023-11-21T01:33:18;43.03;;;24.67;;
37609;SDS011;23457;51.966;8.230;2023-11-21T01:35:45;42.35;;;23.10;;
37609;SDS011;23457;51.966;8.230;2023-11-21T01:38:13;42.55;;;24.30;;
37609;SDS011;23457;51.966;8.230;2023-11-21T01:40:40;44.28;;;24.33;;
37609;SDS011;23457;51.966;8.230;2023-11-21T01:43:07;41.00;;;21.73;;
37609;SDS011;23457;51.966;8.230;2023-11-21T01:45:35;36.13;;;21.38;;
37609;SDS011;23457;51.966;8.230;2023-11-21T01:48:02;45.65;;;22.50;;
37609;SDS011;23457;51.966;8.230;2023-11-21T01:50:30;46.53;;;23.80;;
37609;SDS011;23457;51.966;8.230;2023-11-21T01:52:57;43.38;;;22.65;;
37609;SDS011;23457;51.966;8.230;2023-11-21T01:55:24;37.88;;;20.92;;
37609;SDS011;23457;51.966;8.230;2023-11-21T01:57:55;37.22;;;21.58;;
37609;SDS011;23457;51.966;8.230;2023-11-21T02:00:24;40.85;;;22.48;;
37609;SDS011;23457;51.966;8.230;2023-11-21T02:02:51;36.50;;;21.67;;
37609;SDS011;23457;51.966;8.230;2023-11-21T02:05:18;35.65;;;21.80;;
37609;SDS011;23457;51.966;8.230;2023-11-21T02:07:48;35.42;;;20.73;;
37609;SDS011;23457;51.966;8.230;2023-11-21T02:10:15;39.25;;;23.42;;
37609;SDS011;23457;51.966;8.230;2023-11-21T02:12:43;42.25;;;22.75;;
37609;SDS011;23457;51.966;8.230;2023-11-21T02:15:12;38.50;;;21.50;;
37609;SDS011;23457;51.966;8.230;2023-11-21T02:17:47;39.78;;;23.17;;
37609;SDS011;23457;51.966;8.230;2023-11-21T02:20:18;41.90;;;22.52;;
37609;SDS011;23457;51.966;8.230;2023-11-21T02:25:31;36.67;;;20.25;;
37609;SDS011;23457;51.966;8.230;2023-11-21T02:30:27;47.20;;;23.48;;
37609;SDS011;23457;51.966;8.230;2023-11-21T02:32:54;36.22;;;21.30;;
37609;SDS011;23457;51.966;8.230;2023-11-21T02:37:54;39.05;;;22.48;;
37609;SDS011;23457;51.966;8.230;2023-11-21T02:40:21;43.65;;;23.70;;
37609;SDS011;23457;51.966;8.230;2023-11-21T02:42:48;36.78;;;22.30;;
37609;SDS011;23457;51.966;8.230;2023-11-21T02:45:19;39.67;;;24.00;;
37609;SDS011;23457;51.966;8.230;2023-11-21T02:47:47;38.08;;;23.40;;
37609;SDS011;23457;51.966;8.230;2023-11-21T02:50:16;40.75;;;22.55;;
37609;SDS011;23457;51.966;8.230;2023-11-21T02:55:13;38.03;;;22.35;;
37609;SDS011;23457;51.966;8.230;2023-11-21T02:57:40;44.53;;;23.50;;
37609;SDS011;23457;51.966;8.230;2023-11-21T03:00:06;39.90;;;22.80;;
37609;SDS011;23457;51.966;8.230;2023-11-21T03:02:34;43.65;;;22.55;;
37609;SDS011;23457;51.966;8.230;2023-11-21T03:05:06;47.20;;;23.98;;
37609;SDS011;23457;51.966;8.230;2023-11-21T03:07:38;41.53;;;23.33;;
37609;SDS011;23457;51.966;8.230;2023-11-21T03:10:06;40.33;;;24.00;;
37609;SDS011;23457;51.966;8.230;2023-11-21T03:12:39;39.38;;;21.98;;
37609;SDS011;23457;51.966;8.230;2023-11-21T03:15:06;36.72;;;22.80;;
37609;SDS011;23457;51.966;8.230;2023-11-21T03:17:35;41.67;;;23.40;;
37609;SDS011;23457;51.966;8.230;2023-11-21T03:20:02;43.72;;;24.10;;
37609;SDS011;23457;51.966;8.230;2023-11-21T03:22:30;41.03;;;23.75;;
37609;SDS011;23457;51.966;8.230;2023-11-21T03:24:57;39.67;;;23.90;;
37609;SDS011;23457;51.966;8.230;2023-11-21T03:27:25;42.05;;;24.90;;
37609;SDS011;23457;51.966;8.230;2023-11-21T03:29:52;40.30;;;23.00;;
37609;SDS011;23457;51.966;8.230;2023-11-21T03:32:20;42.78;;;23.50;;
37609;SDS011;23457;51.966;8.230;2023-11-21T03:34:57;39.67;;;22.67;;
37609;SDS011;23457;51.966;8.230;2023-11-21T03:37:25;37.20;;;22.38;;
37609;SDS011;23457;51.966;8.230;2023-11-21T03:39:55;38.08;;;22.02;;
37609;SDS011;23457;51.966;8.230;2023-11-21T03:42:23;40.03;;;23.00;;
37609;SDS011;23457;51.966;8.230;2023-11-21T03:44:50;37.70;;;21.63;;
37609;SDS011;23457;51.966;8.230;2023-11-21T03:47:17;35.97;;;22.02;;
37609;SDS011;23457;51.966;8.230;2023-11-21T03:49:45;39.70;;;22.77;;
37609;SDS011;23457;51.966;8.230;2023-11-21T03:52:15;37.13;;;21.95;;
37609;SDS011;23457;51.966;8.230;2023-11-21T03:54:42;40.00;;;22.27;;
37609;SDS011;23457;51.966;8.230;2023-11-21T03:57:09;36.97;;;23.38;;
37609;SDS011;23457;51.966;8.230;2023-11-21T03:59:39;40.30;;;21.33;;
37609;SDS011;23457;51.966;8.230;2023-11-21T04:02:07;44.17;;;25.08;;
37609;SDS011;23457;51.966;8.230;2023-11-21T04:04:34;37.22;;;23.00;;
37609;SDS011;23457;51.966;8.230;2023-11-21T04:07:02;35.85;;;21.30;;
37609;SDS011;23457;51.966;8.230;2023-11-21T04:09:29;35.33;;;21.23;;
37609;SDS011;23457;51.966;8.230;2023-11-21T04:11:56;35.05;;;22.48;;
37609;SDS011;23457;51.966;8.230;2023-11-21T04:14:23;41.10;;;23.30;;
37609;SDS011;23457;51.966;8.230;2023-11-21T04:16:49;37.35;;;22.83;;
37609;SDS011;23457;51.966;8.230;2023-11-21T04:19:16;37.85;;;24.30;;
37609;SDS011;23457;51.966;8.230;2023-11-21T04:21:43;42.72;;;23.70;;
37609;SDS011;23457;51.966;8.230;2023-11-21T04:24:10;38.05;;;23.42;;
37609;SDS011;23457;51.966;8.230;2023-11-21T04:26:37;36.25;;;22.38;;
37609;SDS011;23457;51.966;8.230;2023-11-21T04:29:04;38.58;;;21.20;;
37609;SDS011;23457;51.966;8.230;2023-11-21T04:31:31;40.05;;;23.40;;
37609;SDS011;23457;51.966;8.230;2023-11-21T04:33:58;39.00;;;24.33;;
37609;SDS011;23457;51.966;8.230;2023-11-21T04:36:25;30.55;;;20.90;;
37609;SDS011;23457;51.966;8.230;2023-11-21T04:38:52;36.60;;;20.80;;
37609;SDS011;23457;51.966;8.230;2023-11-21T04:41:19;37.83;;;20.70;;
37609;SDS011;23457;51.966;8.230;2023-11-21T04:43:46;32.65;;;19.58;;
37609;SDS011;23457;51.966;8.230;2023-11-21T04:46:12;34.78;;;20.65;;
37609;SDS011;23457;51.966;8.230;2023-11-21T04:48:40;29.40;;;19.25;;
37609;SDS011;23457;51.966;8.230;2023-11-21T04:51:07;30.02;;;18.33;;
37609;SDS011;23457;51.966;8.230;2023-11-21T04:53:33;32.40;;;19.55;;
37609;SDS011;23457;51.966;8.230;2023-11-21T04:56:01;30.70;;;18.23;;
37609;SDS011;23457;51.966;8.230;2023-11-21T04:58:27;32.67;;;18.70;;
37609;SDS011;23457;51.966;8.230;2023-11-21T05:00:54;33.20;;;19.20;;
37609;SDS011;23457;51.966;8.230;2023-11-21T05:03:21;33.17;;;19.23;;
37609;SDS011;23457;51.966;8.230;2023-11-21T05:05:50;36.70;;;20.52;;
37609;SDS011;23457;51.966;8.230;2023-11-21T05:08:17;31.67;;;18.85;;
37609;SDS011;23457;51.966;8.230;2023-11-21T05:10:43;37.78;;;20.65;;
37609;SDS011;23457;51.966;8.230;2023-11-21T05:13:10;32.20;;;18.48;;
37609;SDS011;23457;51.966;8.230;2023-11-21T05:15:37;30.70;;;17.92;;
37609;SDS011;23457;51.966;8.230;2023-11-21T05:18:05;33.13;;;18.58;;
37609;SDS011;23457;51.966;8.230;2023-11-21T05:20:33;33.30;;;20.00;;
37609;SDS011;23457;51.966;8.230;2023-11-21T05:22:59;30.60;;;19.85;;
37609;SDS011;23457;51.966;8.230;2023-11-21T05:25:26;31.48;;;19.27;;
37609;SDS011;23457;51.966;8.230;2023-11-21T05:27:53;33.05;;;18.73;;
37609;SDS011;23457;51.966;8.230;2023-11-21T05:30:21;31.67;;;18.83;;
37609;SDS011;23457;51.966;8.230;2023-11-21T05:32:48;31.08;;;18.90;;
37609;SDS011;23457;51.966;8.230;2023-11-21T05:35:16;32.00;;;19.55;;
37609;SDS011;23457;51.966;8.230;2023-11-21T05:37:47;30.38;;;19.58;;
37609;SDS011;23457;51.966;8.230;2023-11-21T05:40:14;35.08;;;21.00;;
37609;SDS011;23457;51.966;8.230;2023-11-21T05:42:41;38.05;;;22.58;;
37609;SDS011;23457;51.966;8.230;2023-11-21T05:45:07;40.67;;;22.73;;
37609;SDS011;23457;51.966;8.230;2023-11-21T05:47:41;44.25;;;23.30;;
37609;SDS011;23457;51.966;8.230;2023-11-21T05:50:10;39.90;;;22.65;;
37609;SDS011;23457;51.966;8.230;2023-11-21T05:52:42;41.47;;;21.20;;
37609;SDS011;23457;51.966;8.230;2023-11-21T05:55:12;40.35;;;22.30;;
37609;SDS011;23457;51.966;8.230;2023-11-21T05:57:40;35.28;;;21.10;;
37609;SDS011;23457;51.966;8.230;2023-11-21T06:00:09;41.10;;;22.02;;
37609;SDS011;23457;51.966;8.230;2023-11-21T06:02:42;33.97;;;22.17;;
37609;SDS011;23457;51.966;8.230;2023-11-21T06:05:09;35.97;;;20.48;;
37609;SDS011;23457;51.966;8.230;2023-11-21T06:07:39;40.90;;;23.02;;
37609;SDS011;23457;51.966;8.230;2023-11-21T06:10:07;39.40;;;23.08;;
37609;SDS011;23457;51.966;8.230;2023-11-21T06:12:37;37.47;;;22.15;;
37609;SDS011;23457;51.966;8.230;2023-11-21T06:15:04;41.70;;;23.20;;
37609;SDS011;23457;51.966;8.230;2023-11-21T06:17:33;38.65;;;22.48;;
37609;SDS011;23457;51.966;8.230;2023-11-21T06:20:03;38.53;;;22.40;;
37609;SDS011;23457;51.966;8.230;2023-11-21T06:22:36;34.75;;;21.92;;
37609;SDS011;23457;51.966;8.230;2023-11-21T06:25:04;37.53;;;22.73;;
37609;SDS011;23457;51.966;8.230;2023-11-21T06:27:32;41.25;;;22.60;;
37609;SDS011;23457;51.966;8.230;2023-11-21T06:30:05;33.20;;;21.15;;
37609;SDS011;23457;51.966;8.230;2023-11-21T06:32:35;39.53;;;23.13;;
37609;SDS011;23457;51.966;8.230;2023-11-21T06:35:03;38.38;;;22.73;;
37609;SDS011;23457;51.966;8.230;2023-11-21T06:37:31;38.78;;;22.38;;
37609;SDS011;23457;51.966;8.230;2023-11-21T06:39:58;37.97;;;22.23;;
37609;SDS011;23457;51.966;8.230;2023-11-21T06:42:26;46.08;;;23.83;;
37609;SDS011;23457;51.966;8.230;2023-11-21T06:44:54;38.45;;;23.60;;
37609;SDS011;23457;51.966;8.230;2023-11-21T06:47:23;39.38;;;23.83;;
37609;SDS011;23457;51.966;8.230;2023-11-21T06:49:52;40.40;;;23.08;;
37609;SDS011;23457;51.966;8.230;2023-11-21T06:52:19;41.92;;;24.52;;
37609;SDS011;23457;51.966;8.230;2023-11-21T06:54:46;41.63;;;22.90;;
37609;SDS011;23457;51.966;8.230;2023-11-21T06:57:14;38.85;;;24.02;;
37609;SDS011;23457;51.966;8.230;2023-11-21T06:59:40;38.03;;;23.23;;
37609;SDS011;23457;51.966;8.230;2023-11-21T07:02:08;49.70;;;26.95;;
37609;SDS011;23457;51.966;8.230;2023-11-21T07:04:36;50.50;;;26.92;;
37609;SDS011;23457;51.966;8.230;2023-11-21T07:07:03;43.95;;;25.85;;
37609;SDS011;23457;51.966;8.230;2023-11-21T07:09:30;46.30;;;25.83;;
37609;SDS011;23457;51.966;8.230;2023-11-21T07:11:57;52.70;;;27.23;;
37609;SDS011;23457;51.966;8.230;2023-11-21T07:14:24;47.67;;;27.70;;
37609;SDS011;23457;51.966;8.230;2023-11-21T07:16:51;50.30;;;28.33;;
37609;SDS011;23457;51.966;8.230;2023-11-21T07:19:19;48.00;;;27.98;;
37609;SDS011;23457;51.966;8.230;2023-11-21T07:21:46;51.28;;;28.60;;
37609;SDS011;23457;51.966;8.230;2023-11-21T07:24:13;54.33;;;28.67;;
37609;SDS011;23457;51.966;8.230;2023-11-21T07:26:40;52.17;;;28.17;;
37609;SDS011;23457;51.966;8.230;2023-11-21T07:29:07;58.40;;;29.08;;
37609;SDS011;23457;51.966;8.230;2023-11-21T07:31:35;59.72;;;30.70;;
37609;SDS011;23457;51.966;8.230;2023-11-21T07:34:01;60.17;;;29.85;;
37609;SDS011;23457;51.966;8.230;2023-11-21T07:36:28;53.90;;;28.73;;
37609;SDS011;23457;51.966;8.230;2023-11-21T07:38:55;61.45;;;31.70;;
37609;SDS011;23457;51.966;8.230;2023-11-21T07:41:22;57.05;;;30.15;;
37609;SDS011;23457;51.966;8.230;2023-11-21T07:43:57;57.35;;;29.88;;
37609;SDS011;23457;51.966;8.230;2023-11-21T07:46:25;57.13;;;29.73;;
37609;SDS011;23457;51.966;8.230;2023-11-21T07:48:53;63.13;;;31.30;;
37609;SDS011;23457;51.966;8.230;2023-11-21T07:51:21;58.85;;;29.88;;
37609;SDS011;23457;51.966;8.230;2023-11-21T07:53:48;62.30;;;32.42;;
37609;SDS011;23457;51.966;8.230;2023-11-21T07:56:16;59.42;;;31.80;;
37609;SDS011;23457;51.966;8.230;2023-11-21T07:58:43;53.53;;;29.13;;
37609;SDS011;23457;51.966;8.230;2023-11-21T08:01:10;59.63;;;30.52;;
37609;SDS011;23457;51.966;8.230;2023-11-21T08:03:38;61.30;;;30.52;;
37609;SDS011;23457;51.966;8.230;2023-11-21T08:06:05;66.30;;;31.42;;
37609;SDS011;23457;51.966;8.230;2023-11-21T08:08:32;67.18;;;32.97;;
37609;SDS011;23457;51.966;8.230;2023-11-21T08:10:59;60.75;;;31.65;;
37609;SDS011;23457;51.966;8.230;2023-11-21T08:13:28;59.97;;;30.13;;
37609;SDS011;23457;51.966;8.230;2023-11-21T08:15:57;57.92;;;30.90;;
37609;SDS011;23457;51.966;8.230;2023-11-21T08:18:28;54.65;;;29.30;;
37609;SDS011;23457;51.966;8.230;2023-11-21T08:20:56;55.72;;;30.75;;
37609;SDS011;23457;51.966;8.230;2023-11-21T08:23:23;61.25;;;31.05;;
37609;SDS011;23457;51.966;8.230;2023-11-21T08:25:53;59.80;;;31.70;;
37609;SDS011;23457;51.966;8.230;2023-11-21T08:28:20;63.20;;;30.85;;
37609;SDS011;23457;51.966;8.230;2023-11-21T08:30:52;63.67;;;30.50;;
37609;SDS011;23457;51.966;8.230;2023-11-21T08:33:20;70.07;;;31.48;;
37609;SDS011;23457;51.966;8.230;2023-11-21T08:35:47;70.63;;;31.65;;
37609;SDS011;23457;51.966;8.230;2023-11-21T08:38:14;71.15;;;31.73;;
37609;SDS011;23457;51.966;8.230;2023-11-21T08:40:40;66.60;;;29.95;;
37609;SDS011;23457;51.966;8.230;2023-11-21T08:43:07;70.78;;;30.90;;
37609;SDS011;23457;51.966;8.230;2023-11-21T08:45:34;86.13;;;32.65;;
37609;SDS011;23457;51.966;8.230;2023-11-21T08:48:01;78.75;;;32.13;;
37609;SDS011;23457;51.966;8.230;2023-11-21T08:50:29;73.63;;;30.30;;
37609;SDS011;23457;51.966;8.230;2023-11-21T08:52:55;69.75;;;30.10;;
37609;SDS011;23457;51.966;8.230;2023-11-21T08:55:22;74.15;;;30.00;;
37609;SDS011;23457;51.966;8.230;2023-11-21T08:57:49;76.95;;;29.52;;
37609;SDS011;23457;51.966;8.230;2023-11-21T09:00:17;72.15;;;28.75;;
37609;SDS011;23457;51.966;8.230;2023-11-21T09:02:45;63.10;;;27.25;;
37609;SDS011;23457;51.966;8.230;2023-11-21T09:05:13;65.03;;;27.83;;
37609;SDS011;23457;51.966;8.230;2023-11-21T09:07:41;60.25;;;25.42;;
37609;SDS011;23457;51.966;8.230;2023-11-21T09:10:09;66.20;;;26.27;;
37609;SDS011;23457;51.966;8.230;2023-11-21T09:12:37;60.03;;;25.05;;
37609;SDS011;23457;51.966;8.230;2023-11-21T09:15:05;60.10;;;24.63;;
37609;SDS011;23457;51.966;8.230;2023-11-21T09:17:32;61.85;;;25.20;;
37609;SDS011;23457;51.966;8.230;2023-11-21T09:20:01;57.70;;;23.15;;
37609;SDS011;23457;51.966;8.230;2023-11-21T09:22:30;60.03;;;24.67;;
37609;SDS011;23457;51.966;8.230;2023-11-21T09:24:58;58.30;;;23.35;;
37609;SDS011;23457;51.966;8.230;2023-11-21T09:27:25;56.00;;;22.50;;
37609;SDS011;23457;51.966;8.230;2023-11-21T09:29:54;60.78;;;24.58;;
37609;SDS011;23457;51.966;8.230;2023-11-21T09:32:21;53.28;;;23.20;;
37609;SDS011;23457;51.966;8.230;2023-11-21T09:34:49;61.53;;;22.77;;
37609;SDS011;23457;51.966;8.230;2023-11-21T09:37:16;58.40;;;22.83;;
37609;SDS011;23457;51.966;8.230;2023-11-21T09:39:44;47.78;;;22.02;;
37609;SDS011;23457;51.966;8.230;2023-11-21T09:42:12;49.42;;;21.67;;
37609;SDS011;23457;51.966;8.230;2023-11-21T09:47:17;49.72;;;21.00;;
37609;SDS011;23457;51.966;8.230;2023-11-21T09:49:47;47.45;;;20.90;;
37609;SDS011;23457;51.966;8.230;2023-11-21T09:52:18;49.58;;;20.10;;
37609;SDS011;23457;51.966;8.230;2023-11-21T09:54:52;44.92;;;19.27;;
37609;SDS011;23457;51.966;8.230;2023-11-21T09:57:20;45.58;;;20.33;;
37609;SDS011;23457;51.966;8.230;2023-11-21T09:59:51;51.05;;;20.67;;
37609;SDS011;23457;51.966;8.230;2023-11-21T10:02:25;46.92;;;20.30;;
37609;SDS011;23457;51.966;8.230;2023-11-21T10:04:55;46.47;;;19.77;;
37609;SDS011;23457;51.966;8.230;2023-11-21T10:07:23;45.22;;;20.95;;
37609;SDS011;23457;51.966;8.230;2023-11-21T10:09:50;43.97;;;19.02;;
37609;SDS011;23457;51.966;8.230;2023-11-21T10:12:18;42.17;;;19.75;;
37609;SDS011;23457;51.966;8.230;2023-11-21T10:14:48;45.20;;;20.90;;
37609;SDS011;23457;51.966;8.230;2023-11-21T10:17:16;37.92;;;16.52;;
37609;SDS011;23457;51.966;8.230;2023-11-21T10:19:48;37.25;;;17.05;;
37609;SDS011;23457;51.966;8.230;2023-11-21T10:22:15;36.97;;;16.65;;
37609;SDS011;23457;51.966;8.230;2023-11-21T10:24:43;34.97;;;17.00;;
37609;SDS011;23457;51.966;8.230;2023-11-21T10:27:19;34.67;;;16.52;;
37609;SDS011;23457;51.966;8.230;2023-11-21T10:29:46;39.88;;;17.77;;
37609;SDS011;23457;51.966;8.230;2023-11-21T10:32:12;39.63;;;17.88;;
37609;SDS011;23457;51.966;8.230;2023-11-21T10:34:39;35.72;;;16.52;;
37609;SDS011;23457;51.966;8.230;2023-11-21T10:37:11;42.83;;;18.42;;
37609;SDS011;23457;51.966;8.230;2023-11-21T10:39:39;37.75;;;17.40;;
37609;SDS011;23457;51.966;8.230;2023-11-21T10:42:08;34.72;;;17.80;;
37609;SDS011;23457;51.966;8.230;2023-11-21T10:44:36;31.98;;;16.33;;
37609;SDS011;23457;51.966;8.230;2023-11-21T10:47:04;39.60;;;17.58;;
37609;SDS011;23457;51.966;8.230;2023-11-21T10:49:31;32.72;;;15.85;;
37609;SDS011;23457;51.966;8.230;2023-11-21T10:51:59;34.10;;;15.23;;
37609;SDS011;23457;51.966;8.230;2023-11-21T10:54:26;34.88;;;18.35;;
37609;SDS011;23457;51.966;8.230;2023-11-21T10:56:53;26.92;;;14.98;;
37609;SDS011;23457;51.966;8.230;2023-11-21T10:59:23;27.25;;;14.18;;
37609;SDS011;23457;51.966;8.230;2023-11-21T11:01:54;26.35;;;14.07;;
37609;SDS011;23457;51.966;8.230;2023-11-21T11:04:24;32.55;;;13.82;;
37609;SDS011;23457;51.966;8.230;2023-11-21T11:06:57;23.67;;;12.02;;
37609;SDS011;23457;51.966;8.230;2023-11-21T11:09:26;21.08;;;12.48;;
37609;SDS011;23457;51.966;8.230;2023-11-21T11:11:52;17.27;;;11.38;;
37609;SDS011;23457;51.966;8.230;2023-11-21T11:14:20;22.88;;;12.25;;
37609;SDS011;23457;51.966;8.230;2023-11-21T11:16:53;15.82;;;9.82;;
37609;SDS011;23457;51.966;8.230;2023-11-21T11:19:22;11.65;;;8.50;;
37609;SDS011;23457;51.966;8.230;2023-11-21T11:24:44;13.20;;;7.35;;
37609;SDS011;23457;51.966;8.230;2023-11-21T11:38:06;14.73;;;10.82;;
37609;SDS011;23457;51.966;8.230;2023-11-21T11:40:40;18.25;;;14.73;;
37609;SDS011;23457;51.966;8.230;2023-11-21T11:43:11;18.60;;;12.00;;
37609;SDS011;23457;51.966;8.230;2023-11-21T11:45:38;19.48;;;12.75;;
37609;SDS011;23457;51.966;8.230;2023-11-21T11:48:08;21.50;;;14.23;;
37609;SDS011;23457;51.966;8.230;2023-11-21T11:53:33;24.50;;;15.80;;
37609;SDS011;23457;51.966;8.230;2023-11-21T11:58:56;24.55;;;16.98;;
37609;SDS011;23457;51.966;8.230;2023-11-21T12:01:25;23.80;;;15.80;;
37609;SDS011;23457;51.966;8.230;2023-11-21T12:06:43;17.10;;;13.15;;
37609;SDS011;23457;51.966;8.230;2023-11-21T12:09:12;20.55;;;14.55;;
37609;SDS011;23457;51.966;8.230;2023-11-21T12:11:52;17.73;;;13.02;;
37609;SDS011;23457;51.966;8.230;2023-11-21T12:14:21;18.65;;;12.32;;
37609;SDS011;23457;51.966;8.230;2023-11-21T12:16:48;18.00;;;12.18;;
37609;SDS011;23457;51.966;8.230;2023-11-21T12:19:15;17.83;;;13.32;;
37609;SDS011;23457;51.966;8.230;2023-11-21T12:21:42;22.00;;;14.32;;
37609;SDS011;23457;51.966;8.230;2023-11-21T12:24:10;22.75;;;13.88;;
37609;SDS011;23457;51.966;8.230;2023-11-21T12:26:40;26.17;;;16.00;;
37609;SDS011;23457;51.966;8.230;2023-11-21T12:29:07;26.42;;;15.23;;
37609;SDS011;23457;51.966;8.230;2023-11-21T12:31:34;21.75;;;13.93;;
37609;SDS011;23457;51.966;8.230;2023-11-21T12:34:01;23.00;;;14.07;;
37609;SDS011;23457;51.966;8.230;2023-11-21T12:36:29;22.55;;;15.27;;
37609;SDS011;23457;51.966;8.230;2023-11-21T12:38:56;22.02;;;13.13;;
37609;SDS011;23457;51.966;8.230;2023-11-21T12:41:23;23.65;;;15.02;;
37609;SDS011;23457;51.966;8.230;2023-11-21T12:43:50;21.27;;;13.82;;
37609;SDS011;23457;51.966;8.230;2023-11-21T12:46:17;19.92;;;13.00;;
37609;SDS011;23457;51.966;8.230;2023-11-21T12:48:44;18.50;;;12.35;;
37609;SDS011;23457;51.966;8.230;2023-11-21T12:51:14;24.73;;;12.43;;
37609;SDS011;23457;51.966;8.230;2023-11-21T12:53:42;18.33;;;11.82;;
37609;SDS011;23457;51.966;8.230;2023-11-21T12:56:12;17.92;;;12.02;;
37609;SDS011;23457;51.966;8.230;2023-11-21T12:58:40;17.70;;;12.48;;
37609;SDS011;23457;51.966;8.230;2023-11-21T13:01:14;18.15;;;11.57;;
37609;SDS011;23457;51.966;8.230;2023-11-21T13:03:48;17.27;;;11.07;;
37609;SDS011;23457;51.966;8.230;2023-11-21T13:06:17;15.45;;;11.05;;
37609;SDS011;23457;51.966;8.230;2023-11-21T13:08:46;18.15;;;12.20;;
37609;SDS011;23457;51.966;8.230;2023-11-21T13:11:13;17.48;;;11.82;;
37609;SDS011;23457;51.966;8.230;2023-11-21T13:13:41;18.27;;;11.85;;
37609;SDS011;23457;51.966;8.230;2023-11-21T13:16:12;20.60;;;11.15;;
37609;SDS011;23457;51.966;8.230;2023-11-21T13:18:39;20.67;;;10.88;;
37609;SDS011;23457;51.966;8.230;2023-11-21T13:21:08;17.17;;;10.87;;
37609;SDS011;23457;51.966;8.230;2023-11-21T13:23:44;15.68;;;10.90;;
37609;SDS011;23457;51.966;8.230;2023-11-21T13:26:13;19.27;;;11.60;;
37609;SDS011;23457;51.966;8.230;2023-11-21T13:28:41;17.02;;;11.27;;
37609;SDS011;23457;51.966;8.230;2023-11-21T13:31:13;20.15;;;12.25;;
37609;SDS011;23457;51.966;8.230;2023-11-21T13:33:53;16.88;;;11.35;;
37609;SDS011;23457;51.966;8.230;2023-11-21T13:36:25;19.45;;;11.35;;
37609;SDS011;23457;51.966;8.230;2023-11-21T13:38:52;16.65;;;11.32;;
37609;SDS011;23457;51.966;8.230;2023-11-21T13:41:20;22.77;;;13.35;;
37609;SDS011;23457;51.966;8.230;2023-11-21T13:43:54;21.05;;;12.35;;
37609;SDS011;23457;51.966;8.230;2023-11-21T13:46:30;18.25;;;11.82;;
37609;SDS011;23457;51.966;8.230;2023-11-21T13:49:03;19.15;;;10.55;;
37609;SDS011;23457;51.966;8.230;2023-11-21T13:51:36;23.30;;;15.52;;
37609;SDS011;23457;51.966;8.230;2023-11-21T13:54:11;24.15;;;14.20;;
37609;SDS011;23457;51.966;8.230;2023-11-21T13:56:38;22.02;;;13.27;;
37609;SDS011;23457;51.966;8.230;2023-11-21T13:59:07;23.55;;;13.48;;
37609;SDS011;23457;51.966;8.230;2023-11-21T14:01:47;22.55;;;11.85;;
37609;SDS011;23457;51.966;8.230;2023-11-21T14:04:22;17.02;;;10.38;;
37609;SDS011;23457;51.966;8.230;2023-11-21T14:07:09;13.68;;;8.80;;
37609;SDS011;23457;51.966;8.230;2023-11-21T14:10:05;18.75;;;10.50;;
37609;SDS011;23457;51.966;8.230;2023-11-21T14:12:39;12.70;;;8.98;;
37609;SDS011;23457;51.966;8.230;2023-11-21T14:15:09;13.93;;;9.15;;
37609;SDS011;23457;51.966;8.230;2023-11-21T14:17:38;14.90;;;9.32;;
37609;SDS011;23457;51.966;8.230;2023-11-21T14:20:07;17.58;;;11.02;;
37609;SDS011;23457;51.966;8.230;2023-11-21T14:22:42;13.10;;;8.55;;
37609;SDS011;23457;51.966;8.230;2023-11-21T14:25:09;22.15;;;11.48;;
37609;SDS011;23457;51.966;8.230;2023-11-21T14:27:37;29.63;;;14.15;;
37609;SDS011;23457;51.966;8.230;2023-11-21T14:30:05;13.90;;;9.60;;
37609;SDS011;23457;51.966;8.230;2023-11-21T14:32:32;12.38;;;9.00;;
37609;SDS011;23457;51.966;8.230;2023-11-21T14:34:59;15.63;;;10.45;;
37609;SDS011;23457;51.966;8.230;2023-11-21T14:37:26;15.00;;;9.32;;
37609;SDS011;23457;51.966;8.230;2023-11-21T14:39:53;11.18;;;8.02;;
37609;SDS011;23457;51.966;8.230;2023-11-21T14:42:20;13.35;;;8.77;;
37609;SDS011;23457;51.966;8.230;2023-11-21T14:44:51;11.43;;;8.07;;
37609;SDS011;23457;51.966;8.230;2023-11-21T14:47:18;10.48;;;8.32;;
37609;SDS011;23457;51.966;8.230;2023-11-21T14:49:51;14.68;;;9.13;;
37609;SDS011;23457;51.966;8.230;2023-11-21T14:52:23;12.27;;;7.82;;
37609;SDS011;23457;51.966;8.230;2023-11-21T14:55:01;11.70;;;7.00;;
37609;SDS011;23457;51.966;8.230;2023-11-21T14:57:47;12.18;;;7.53;;
37609;SDS011;23457;51.966;8.230;2023-11-21T15:00:17;9.52;;;7.13;;
37609;SDS011;23457;51.966;8.230;2023-11-21T15:03:03;12.02;;;7.22;;
37609;SDS011;23457;51.966;8.230;2023-11-21T15:05:31;11.32;;;7.22;;
37609;SDS011;23457;51.966;8.230;2023-11-21T15:08:01;11.75;;;7.72;;